Terminal Aerodrome Forecast
Issued by NWS

Home | Current Version | Previous Version | Text Only | Print | Product List | Glossary On
Versions: 1 2 3 4 5 6 7 8 9 10 11 12 13 14 15 16 17 18 19 20 21 22 23 24 25 26 27 28 29
000
FTUS44 KFWD 252332
TAFDAL
TAF
KDAL 252332Z 2600/2624 26008KT P6SM FEW050
     FM260200 VRB04KT P6SM FEW250
     FM260700 15006KT P6SM FEW250
     FM261300 16012KT P6SM SCT020 BKN120
      TEMPO 2613/2616 BKN020
     FM261600 17014G24KT P6SM BKN035 BKN250
     FM262100 18015G25KT P6SM VCTS SCT035CB BKN120=

USA.gov is the U.S. government's official web portal to all federal, state and local government web resources and services.